Time;durP1;ratioP1;P1;durP2;ratioP2;P2;SDS_P1;SDS_P2;PMS_P1;PMS_P2;Temp;Humidity;BMP_temperature;BMP_pressure;BME280_temperature;BME280_humidity;BME280_pressure;Samples;Min_cycle;Max_cycle;Signal;HPM_P1;HPM_P2
2022/04/16 00:07:39;;;;;;;;;;;;;;;;;;;;;
2022/04/16 07:20:47;;;;;;;15.98;7.03;;;435.30;2073.60;;;;;;4845964;29;20438;-86
2022/04/16 07:23:16;;;;;;;12.85;5.85;;;435.50;2073.60;;;;;;4829687;29;20037;-88
2022/04/16 07:25:54;;;;;;;10.70;6.22;;;435.50;2048.00;;;;;;4829591;29;20025;-88
2022/04/16 07:59:05;;;;;;;11.02;5.65;;;461.30;2022.40;;;;;;4862297;29;20053;-87
2022/04/16 08:02:30;;;;;;;12.20;7.03;;;461.20;2022.40;;;;;;4847318;29;20025;-89
2022/04/16 08:05:07;;;;;;;11.52;7.80;;;461.40;1996.80;;;;;;4767247;30;20104;-85
2022/04/16 08:07:55;;;;;;;13.25;7.22;;;486.40;1996.80;;;;;;4846040;29;20090;-84
2022/04/16 08:10:21;;;;;;;10.48;6.50;;;461.70;1971.20;;;;;;4823337;29;20034;-86
2022/04/16 08:12:49;;;;;;;10.27;5.72;;;461.60;1971.20;;;;;;4827314;29;20586;-88
2022/04/16 08:15:24;;;;;;;12.77;6.80;;;486.40;1971.20;;;;;;4824689;29;20033;-88
2022/04/16 08:18:01;;;;;;;9.60;6.05;;;486.50;1945.60;;;;;;4824759;29;20042;-85
2022/04/16 08:20:27;;;;;;;11.98;6.25;;;486.50;1920.00;;;;;;4824486;29;20038;-81
2022/04/16 08:22:53;;;;;;;11.35;5.72;;;486.50;1920.00;;;;;;4824275;29;20026;-86
2022/04/16 08:27:48;;;;;;;10.68;5.88;;;486.60;1920.00;;;;;;4824385;29;20082;-86
2022/04/16 08:30:15;;;;;;;10.32;4.78;;;486.70;1894.40;;;;;;4809071;29;20125;-87
2022/04/16 08:32:42;;;;;;;12.55;8.48;;;486.70;1894.40;;;;;;4808876;29;20034;-83
2022/04/16 08:35:14;;;;;;;18.05;10.35;;;486.70;1945.60;;;;;;4811032;29;20039;-80
2022/04/16 08:37:40;;;;;;;13.60;10.48;;;486.70;2022.40;;;;;;4820462;29;20091;-81
2022/04/16 08:40:07;;;;;;;13.73;9.48;;;486.90;2022.40;;;;;;4827000;29;20487;-84
2022/04/16 08:42:34;;;;;;;13.95;10.55;;;487.20;2022.40;;;;;;4864857;29;20029;-83
2022/04/16 08:45:02;;;;;;;16.00;10.30;;;512.00;1996.80;;;;;;4864511;29;20032;-82
2022/04/16 08:47:28;;;;;;;16.45;9.55;;;512.10;1996.80;;;;;;4864671;29;20462;-83
2022/04/16 08:49:53;;;;;;;16.05;10.18;;;512.30;1971.20;;;;;;4864546;29;20120;-80
2022/04/16 08:52:22;;;;;;;14.77;11.90;;;512.40;1971.20;;;;;;4864427;29;20478;-83
2022/04/16 08:54:48;;;;;;;15.90;11.57;;;512.50;1971.20;;;;;;4864742;29;20093;-83
2022/04/16 08:57:14;;;;;;;12.43;10.38;;;512.70;1971.20;;;;;;4864332;29;20389;-81
2022/04/16 08:59:51;;;;;;;14.00;11.85;;;512.70;1945.60;;;;;;4864187;29;20089;-84
2022/04/16 09:02:19;;;;;;;16.50;11.52;;;512.90;1971.20;;;;;;4864447;29;20113;-85
2022/04/16 09:04:47;;;;;;;19.80;11.52;;;512.70;1971.20;;;;;;4864031;29;20080;-83
2022/04/16 09:07:13;;;;;;;15.70;11.05;;;512.50;1996.80;;;;;;4864255;29;20545;-81
2022/04/16 09:09:38;;;;;;;41.85;12.07;;;512.10;1996.80;;;;;;4864220;29;20033;-80
2022/04/16 09:12:16;;;;;;;15.60;11.30;;;512.10;1971.20;;;;;;4863806;29;20495;-82
2022/04/16 09:14:44;;;;;;;15.32;11.50;;;487.20;1971.20;;;;;;4864259;29;20025;-82
2022/04/16 09:17:17;;;;;;;15.15;11.98;;;487.10;1971.20;;;;;;4864073;29;20036;-83
2022/04/16 09:19:52;;;;;;;14.57;11.90;;;487.10;1996.80;;;;;;4880718;29;20100;-83
2022/04/16 09:22:31;;;;;;;16.90;11.82;;;487.10;1971.20;;;;;;4864325;29;20458;-82
2022/04/16 09:24:57;;;;;;;17.75;10.02;;;512.10;1945.60;;;;;;4864112;29;20058;-81
2022/04/16 09:27:23;;;;;;;15.23;10.38;;;512.20;1920.00;;;;;;4863754;29;20112;-84
2022/04/16 09:29:49;;;;;;;14.38;10.90;;;512.10;1920.00;;;;;;4863892;29;20122;-83
2022/04/16 09:32:23;;;;;;;14.55;11.35;;;512.00;1945.60;;;;;;4863740;29;20073;-84
2022/04/16 09:34:49;;;;;;;11.55;9.52;;;487.20;1945.60;;;;;;4863796;29;20378;-80
2022/04/16 09:37:14;;;;;;;12.65;8.80;;;487.10;1971.20;;;;;;4863110;29;20025;-81
2022/04/16 09:39:40;;;;;;;13.82;9.23;;;487.00;1971.20;;;;;;4863819;29;20212;-81
2022/04/16 09:42:06;;;;;;;12.52;8.93;;;487.00;1971.20;;;;;;4861729;29;20029;-82
2022/04/16 09:44:32;;;;;;;14.93;10.20;;;486.90;1996.80;;;;;;4863340;29;20028;-81
2022/04/16 09:46:58;;;;;;;15.68;11.23;;;486.80;2022.40;;;;;;4863334;29;20025;-83
2022/04/16 09:49:25;;;;;;;13.23;10.90;;;486.70;2048.00;;;;;;4863441;29;20037;-82
2022/04/16 09:51:52;;;;;;;16.83;10.82;;;486.70;2048.00;;;;;;4863308;29;20027;-84
2022/04/16 09:54:21;;;;;;;17.05;13.05;;;486.60;2073.60;;;;;;4863161;29;20021;-81
2022/04/16 09:56:47;;;;;;;21.88;13.60;;;486.50;2048.00;;;;;;4879966;29;20017;-79
2022/04/16 09:59:15;;;;;;;11.70;10.27;;;486.50;2048.00;;;;;;4863542;29;20081;-82
2022/04/16 10:01:46;;;;;;;15.27;9.90;;;486.40;2048.00;;;;;;4863046;29;20036;-82
2022/04/16 10:04:16;;;;;;;20.70;12.30;;;461.70;2022.40;;;;;;4864186;29;20025;-83
2022/04/16 10:06:43;;;;;;;14.15;11.45;;;461.70;2022.40;;;;;;4864017;29;20116;-81
2022/04/16 10:09:17;;;;;;;16.90;13.20;;;461.70;2048.00;;;;;;4863345;29;20029;-82
2022/04/16 10:14:54;;;;;;;17.17;12.27;;;461.60;2124.80;;;;;;4882233;29;20027;-83
2022/04/16 10:17:46;;;;;;;14.85;12.45;;;461.50;2124.80;;;;;;4866599;29;20454;-84
2022/04/16 10:20:20;;;;;;;16.48;13.10;;;461.50;2124.80;;;;;;4867043;29;20025;-83
2022/04/16 10:22:54;;;;;;;15.90;11.57;;;461.40;2099.20;;;;;;4866760;29;20085;-82
2022/04/16 10:25:32;;;;;;;11.68;10.48;;;461.50;2099.20;;;;;;4867009;29;20031;-83
2022/04/16 10:28:05;;;;;;;18.00;12.25;;;461.50;2073.60;;;;;;4866715;29;20486;-83
2022/04/16 10:30:39;;;;;;;19.33;13.02;;;461.40;2073.60;;;;;;4866439;29;20048;-83
2022/04/16 10:33:27;;;;;;;17.08;14.20;;;461.40;2073.60;;;;;;4866616;29;20036;-82
2022/04/16 10:36:02;;;;;;;16.55;13.18;;;461.40;2073.60;;;;;;4866426;29;20061;-82
2022/04/16 10:38:43;;;;;;;18.15;12.77;;;461.40;2099.20;;;;;;4883164;29;20054;-85
2022/04/16 10:41:19;;;;;;;29.92;20.52;;;461.40;2099.20;;;;;;4866664;29;20104;-84
2022/04/16 10:43:59;;;;;;;20.27;14.05;;;461.40;2099.20;;;;;;4865885;29;20053;-83
2022/04/16 10:46:46;;;;;;;16.33;12.02;;;461.40;2073.60;;;;;;4866602;29;20033;-82
2022/04/16 10:49:13;;;;;;;27.67;22.00;;;461.50;2048.00;;;;;;4866488;29;20105;-83
2022/04/16 10:51:39;;;;;;;24.25;19.35;;;461.50;2073.60;;;;;;4866283;29;20484;-81
2022/04/16 10:54:10;;;;;;;19.75;14.25;;;461.50;2073.60;;;;;;4883069;29;20101;-80
2022/04/16 10:56:42;;;;;;;16.33;12.50;;;461.50;2099.20;;;;;;4886180;29;20032;-77
2022/04/16 10:59:08;;;;;;;17.15;12.52;;;461.40;2099.20;;;;;;4895772;29;20052;-81
2022/04/16 11:01:35;;;;;;;14.20;12.70;;;461.40;2124.80;;;;;;4866245;29;20025;-82
2022/04/16 11:04:16;;;;;;;15.25;12.68;;;461.40;2150.40;;;;;;4882700;29;20052;-84
2022/04/16 11:06:51;;;;;;;16.52;13.05;;;461.30;2176.00;;;;;;4866103;29;20028;-82
2022/04/16 11:09:20;;;;;;;17.92;13.43;;;461.20;2176.00;;;;;;4865900;29;20410;-81
2022/04/16 11:11:52;;;;;;;16.25;12.50;;;461.20;2176.00;;;;;;4882142;29;20077;-81
2022/04/16 11:14:19;;;;;;;11.77;10.52;;;461.30;2150.40;;;;;;4865591;29;20025;-79
2022/04/16 11:16:46;;;;;;;13.13;11.70;;;461.30;2150.40;;;;;;4866021;29;20033;-82
2022/04/16 11:19:16;;;;;;;14.73;11.63;;;461.40;2150.40;;;;;;4865834;29;20032;-78
2022/04/16 11:21:45;;;;;;;16.92;13.57;;;461.40;2150.40;;;;;;4882331;29;20373;-81
2022/04/16 11:24:11;;;;;;;15.05;11.38;;;461.50;2150.40;;;;;;4865624;29;20026;-83
2022/04/16 11:35:01;;;;;;;14.77;10.07;;;486.40;2099.20;;;;;;4882047;29;20073;-83
2022/04/16 11:37:29;;;;;;;15.50;9.52;;;486.40;2099.20;;;;;;4865518;29;20458;-82
2022/04/16 11:40:06;;;;;;;10.30;9.02;;;486.50;2124.80;;;;;;4865463;29;20124;-81
2022/04/16 11:42:32;;;;;;;16.42;10.00;;;486.50;2073.60;;;;;;4865185;29;20043;-82
2022/04/16 11:44:58;;;;;;;11.40;9.23;;;486.60;2099.20;;;;;;4865593;29;20028;-82
2022/04/16 11:47:27;;;;;;;11.70;9.07;;;436.10;2073.60;;;;;;4864874;29;20033;-82
2022/04/16 11:49:54;;;;;;;11.68;8.95;;;486.50;2073.60;;;;;;4865439;29;20077;-81
2022/04/16 11:52:27;;;;;;;16.33;10.70;;;486.50;2073.60;;;;;;4865567;29;20414;-81
2022/04/16 11:55:29;;;;;;;13.57;9.02;;;486.50;2073.60;;;;;;4865038;29;20120;-82
2022/04/16 11:57:56;;;;;;;14.77;10.95;;;486.60;2048.00;;;;;;4856735;29;20068;-82
2022/04/16 12:00:22;;;;;;;12.98;9.48;;;486.50;2048.00;;;;;;4865387;29;20032;-85
2022/04/16 12:02:55;;;;;;;19.08;13.43;;;461.70;2048.00;;;;;;4865509;29;20017;-82
2022/04/16 12:05:29;;;;;;;12.23;10.75;;;461.70;2048.00;;;;;;4865296;29;20120;-82
2022/04/16 12:07:55;;;;;;;15.80;10.07;;;461.60;2048.00;;;;;;4864793;29;20037;-82
2022/04/16 12:10:24;;;;;;;15.07;11.25;;;461.50;2048.00;;;;;;4881768;29;20020;-85
2022/04/16 12:12:53;;;;;;;24.38;9.50;;;461.60;2048.00;;;;;;4865378;29;20062;-83
2022/04/16 12:15:27;;;;;;;13.27;7.95;;;461.70;2048.00;;;;;;4864672;29;20032;-83
2022/04/16 12:17:55;;;;;;;12.43;8.35;;;486.50;2022.40;;;;;;4881509;29;20116;-82
2022/04/16 12:20:22;;;;;;;20.20;9.77;;;486.50;2022.40;;;;;;4848043;29;20420;-83
2022/04/16 12:23:02;;;;;;;11.60;8.50;;;486.70;1996.80;;;;;;4829287;29;20030;-84
2022/04/16 12:25:29;;;;;;;26.38;14.05;;;486.70;1996.80;;;;;;4846530;29;20026;-83
2022/04/16 12:27:58;;;;;;;20.63;12.80;;;487.00;1996.80;;;;;;4846222;29;20029;-85
2022/04/16 12:30:31;;;;;;;42.83;31.38;;;486.60;1996.80;;;;;;4845428;29;20052;-82
2022/04/16 12:33:02;;;;;;;24.92;16.27;;;486.60;1996.80;;;;;;4842198;29;20076;-84
2022/04/16 12:35:30;;;;;;;33.10;19.08;;;486.60;1996.80;;;;;;4839151;29;20023;-84
2022/04/16 12:37:57;;;;;;;31.23;19.10;;;486.60;1971.20;;;;;;4828567;29;20594;-79
2022/04/16 12:40:24;;;;;;;19.75;13.45;;;486.60;1971.20;;;;;;4843826;29;20083;-77
2022/04/16 12:42:51;;;;;;;13.73;10.55;;;486.60;1996.80;;;;;;4827574;29;20033;-81
2022/04/16 12:45:17;;;;;;;18.90;12.05;;;486.60;1971.20;;;;;;4844163;29;20463;-75
2022/04/16 12:47:43;;;;;;;17.88;14.20;;;486.70;1971.20;;;;;;4827519;29;20038;-78
2022/04/16 12:50:10;;;;;;;14.00;10.48;;;486.70;1971.20;;;;;;4836567;29;20026;-80
2022/04/16 12:52:36;;;;;;;23.73;13.60;;;487.20;1945.60;;;;;;4834760;29;20026;-78
2022/04/16 12:55:03;;;;;;;17.55;11.07;;;512.00;1894.40;;;;;;4852258;29;20387;-79
2022/04/16 12:57:28;;;;;;;15.60;12.48;;;512.20;1894.40;;;;;;4827701;29;20042;-79
2022/04/16 12:59:54;;;;;;;20.92;13.30;;;512.20;1868.80;;;;;;4827550;29;20033;-80
2022/04/16 13:02:20;;;;;;;20.15;15.88;;;512.40;1868.80;;;;;;4827649;29;20026;-77
2022/04/16 13:04:46;;;;;;;22.73;13.00;;;512.40;1817.60;;;;;;4834150;29;20538;-81
2022/04/16 13:07:12;;;;;;;21.90;13.32;;;512.20;1843.20;;;;;;4844094;29;20030;-81
2022/04/16 13:09:38;;;;;;;13.70;10.27;;;487.30;1894.40;;;;;;4827508;29;20045;-80
2022/04/16 13:12:04;;;;;;;17.48;13.02;;;487.10;1894.40;;;;;;4826942;29;20030;-80
2022/04/16 13:14:30;;;;;;;16.80;12.50;;;487.00;1920.00;;;;;;4827340;29;20030;-76
2022/04/16 13:16:55;;;;;;;23.20;12.90;;;487.00;1945.60;;;;;;4827915;29;20486;-77
2022/04/16 13:19:22;;;;;;;16.13;13.43;;;487.00;1945.60;;;;;;4842496;29;20040;-79
2022/04/16 13:21:48;;;;;;;29.65;16.80;;;487.00;1945.60;;;;;;4859374;29;20061;-80
2022/04/16 13:24:18;;;;;;;16.63;14.50;;;486.80;1945.60;;;;;;4828098;29;20084;-79
2022/04/16 13:26:44;;;;;;;22.48;16.27;;;486.90;1945.60;;;;;;4839865;29;20030;-80
2022/04/16 13:29:11;;;;;;;21.08;17.50;;;486.90;1945.60;;;;;;4849816;29;20489;-83
2022/04/16 13:31:38;;;;;;;24.58;17.48;;;486.70;1945.60;;;;;;4826750;29;20538;-82
2022/04/16 13:34:04;;;;;;;22.83;16.52;;;486.80;1945.60;;;;;;4826843;29;20026;-83
2022/04/16 13:36:30;;;;;;;18.42;15.75;;;487.10;1945.60;;;;;;4832593;29;20029;-82
2022/04/16 13:38:56;;;;;;;20.88;15.95;;;487.10;1920.00;;;;;;4844411;29;20045;-78
2022/04/16 13:41:40;;;;;;;20.05;14.85;;;487.00;1945.60;;;;;;4843284;29;20025;-85
2022/04/16 13:44:07;;;;;;;27.27;17.40;;;486.90;1971.20;;;;;;4827980;29;20403;-84
2022/04/16 13:46:38;;;;;;;22.02;15.68;;;486.70;1945.60;;;;;;4826619;29;20029;-83
2022/04/16 13:49:05;;;;;;;22.17;15.38;;;486.50;1945.60;;;;;;4826826;29;20382;-82
2022/04/16 13:51:32;;;;;;;20.52;14.70;;;486.40;1945.60;;;;;;4826939;29;20568;-80
2022/04/16 13:54:01;;;;;;;17.13;14.55;;;486.40;1945.60;;;;;;4836169;29;20122;-83
2022/04/16 13:56:28;;;;;;;18.10;15.18;;;461.70;1945.60;;;;;;4844955;29;20149;-80
2022/04/16 13:58:54;;;;;;;16.80;10.55;;;486.40;1920.00;;;;;;4844480;29;20474;-81
2022/04/16 14:01:22;;;;;;;13.90;9.80;;;461.50;1920.00;;;;;;4839299;29;20028;-82
2022/04/16 14:03:49;;;;;;;8.88;7.55;;;461.40;1920.00;;;;;;4826565;29;20030;-83
2022/04/16 14:06:16;;;;;;;13.90;6.43;;;461.40;1945.60;;;;;;4826426;29;20095;-84
2022/04/16 14:08:41;;;;;;;12.00;6.40;;;461.40;1894.40;;;;;;4835879;29;20061;-82
2022/04/16 14:11:08;;;;;;;13.60;9.07;;;461.40;1920.00;;;;;;4842820;29;20407;-85
2022/04/16 14:13:37;;;;;;;12.98;8.80;;;461.30;1894.40;;;;;;4848607;29;20022;-81
2022/04/16 14:16:04;;;;;;;12.70;8.13;;;461.70;1920.00;;;;;;4859306;29;20108;-84
2022/04/16 14:18:30;;;;;;;17.05;7.57;;;461.30;1920.00;;;;;;4844994;29;20037;-81
2022/04/16 14:20:56;;;;;;;17.55;7.65;;;461.20;1920.00;;;;;;4844177;29;20478;-81
2022/04/16 14:23:22;;;;;;;15.23;7.35;;;461.10;1894.40;;;;;;4844362;29;20455;-82
2022/04/16 14:25:49;;;;;;;14.43;6.57;;;461.00;1920.00;;;;;;4844593;29;20029;-82
2022/04/16 14:28:15;;;;;;;12.32;6.47;;;461.10;1920.00;;;;;;4843639;29;20034;-82
2022/04/16 14:30:41;;;;;;;9.75;5.80;;;461.10;1920.00;;;;;;4838998;29;20033;-81
2022/04/16 14:33:10;;;;;;;9.70;5.63;;;461.10;1920.00;;;;;;4842498;29;20098;-84
2022/04/16 14:35:36;;;;;;;11.57;5.97;;;461.00;1920.00;;;;;;4856830;29;20053;-80
2022/04/16 14:38:10;;;;;;;9.48;5.90;;;461.20;1945.60;;;;;;4826216;29;20061;-79
2022/04/16 14:40:40;;;;;;;9.80;6.70;;;461.00;1920.00;;;;;;4826128;29;20065;-80
2022/04/16 14:43:06;;;;;;;8.35;6.20;;;461.10;1945.60;;;;;;4825797;29;20037;-80
2022/04/16 14:45:37;;;;;;;8.77;5.53;;;461.10;1945.60;;;;;;4826067;29;20456;-80
2022/04/16 14:48:03;;;;;;;13.88;7.28;;;461.00;1920.00;;;;;;4835687;29;20153;-79
2022/04/16 14:50:29;;;;;;;14.18;10.18;;;461.10;1945.60;;;;;;4860958;29;20021;-77
2022/04/16 14:52:55;;;;;;;18.00;12.60;;;461.00;1945.60;;;;;;4844060;29;20090;-78
2022/04/16 14:55:21;;;;;;;20.25;11.68;;;460.90;1945.60;;;;;;4839260;29;20038;-79
2022/04/16 14:57:47;;;;;;;14.07;9.88;;;460.80;1971.20;;;;;;4844375;29;20068;-81
2022/04/16 15:00:18;;;;;;;22.33;11.77;;;460.80;1971.20;;;;;;4825924;29;20112;-82
2022/04/16 15:02:44;;;;;;;19.17;6.80;;;460.90;1971.20;;;;;;4827497;29;20030;-80
2022/04/16 15:05:10;;;;;;;30.75;6.18;;;460.90;1996.80;;;;;;4844850;29;20029;-79
2022/04/16 15:07:36;;;;;;;12.45;6.80;;;460.90;1971.20;;;;;;4847115;29;20124;-79
2022/04/16 15:10:03;;;;;;;11.45;7.82;;;460.80;1996.80;;;;;;4847188;29;20056;-80
2022/04/16 15:12:29;;;;;;;13.18;8.35;;;436.10;1971.20;;;;;;4845952;29;20056;-78
2022/04/16 15:14:54;;;;;;;14.10;8.98;;;436.00;1996.80;;;;;;4836956;29;20459;-81
2022/04/16 15:17:24;;;;;;;17.42;9.55;;;436.00;1996.80;;;;;;4828709;29;20154;-80
2022/04/16 15:19:51;;;;;;;16.05;9.85;;;436.00;1996.80;;;;;;4828969;29;20072;-82
2022/04/16 15:22:19;;;;;;;19.88;12.38;;;435.90;1996.80;;;;;;4836593;29;20059;-81
2022/04/16 15:24:45;;;;;;;11.70;8.27;;;435.90;1971.20;;;;;;4845848;29;20032;-80
2022/04/16 15:27:11;;;;;;;13.50;9.02;;;435.80;1945.60;;;;;;4846482;29;20059;-82
2022/04/16 15:29:42;;;;;;;11.52;7.75;;;435.80;1920.00;;;;;;4845921;29;20036;-82
2022/04/16 15:32:09;;;;;;;11.93;7.65;;;435.60;1920.00;;;;;;4846896;29;20061;-81
2022/04/16 15:34:35;;;;;;;10.57;7.32;;;435.60;1894.40;;;;;;4846990;29;20025;-81
2022/04/16 15:37:00;;;;;;;15.20;8.82;;;435.60;1920.00;;;;;;4845111;29;20029;-82
2022/04/16 15:39:32;;;;;;;13.38;8.68;;;435.60;1894.40;;;;;;4846314;29;20174;-82
2022/04/16 15:41:58;;;;;;;16.88;8.60;;;435.60;1894.40;;;;;;4846963;29;20029;-84
2022/04/16 15:44:24;;;;;;;10.98;7.90;;;435.40;1868.80;;;;;;4846647;29;20021;-82
2022/04/16 15:46:50;;;;;;;9.50;5.80;;;435.50;1894.40;;;;;;4837276;29;20378;-81
2022/04/16 15:49:16;;;;;;;12.10;7.03;;;435.40;1843.20;;;;;;4828134;29;20042;-82
2022/04/16 15:51:42;;;;;;;13.43;7.65;;;435.40;1868.80;;;;;;4828214;29;20029;-83
2022/04/16 15:54:08;;;;;;;12.20;8.25;;;435.40;1868.80;;;;;;4828580;29;20129;-82
2022/04/16 15:56:34;;;;;;;14.80;11.10;;;435.30;1868.80;;;;;;4828828;29;20168;-82
2022/04/16 15:59:09;;;;;;;13.00;10.05;;;435.20;1868.80;;;;;;4828045;29;20034;-83
2022/04/16 16:01:34;;;;;;;10.60;7.80;;;435.30;1868.80;;;;;;4829095;29;20018;-81
2022/04/16 16:04:03;;;;;;;16.10;8.82;;;410.50;1868.80;;;;;;4828071;29;20030;-81
2022/04/16 16:06:29;;;;;;;14.77;10.27;;;410.50;1868.80;;;;;;4845815;29;20025;-77
2022/04/16 16:09:17;;;;;;;12.77;8.50;;;410.50;1843.20;;;;;;4846084;29;20029;-79
2022/04/16 16:11:43;;;;;;;13.65;10.43;;;410.40;1868.80;;;;;;4841812;29;20048;-79
2022/04/16 16:14:09;;;;;;;14.13;9.55;;;410.40;1868.80;;;;;;4843746;29;20370;-81
2022/04/16 16:16:38;;;;;;;15.73;11.68;;;410.30;1894.40;;;;;;4846417;29;20029;-80
2022/04/16 16:19:05;;;;;;;16.10;10.23;;;410.30;1894.40;;;;;;4845718;29;20032;-83
2022/04/16 16:21:30;;;;;;;15.90;9.18;;;410.30;1894.40;;;;;;4862695;29;20022;-82
2022/04/16 16:23:59;;;;;;;16.40;10.73;;;410.30;1894.40;;;;;;4862962;29;20043;-84
2022/04/16 16:26:25;;;;;;;11.20;9.00;;;410.20;1894.40;;;;;;4845416;29;20025;-81
2022/04/16 16:28:52;;;;;;;11.88;9.13;;;410.20;1920.00;;;;;;4845942;29;20069;-81
2022/04/16 16:31:18;;;;;;;12.10;10.15;;;410.20;1920.00;;;;;;4846171;29;20021;-84
2022/04/16 16:33:44;;;;;;;13.55;10.95;;;410.20;1945.60;;;;;;4845771;29;20024;-83
2022/04/16 16:36:10;;;;;;;13.52;11.63;;;410.20;1945.60;;;;;;4846007;29;20022;-83
2022/04/16 16:38:36;;;;;;;16.65;12.55;;;410.20;1971.20;;;;;;4863625;29;20033;-82
2022/04/16 16:41:02;;;;;;;11.73;9.82;;;410.20;1971.20;;;;;;4848113;29;20379;-81
2022/04/16 16:43:28;;;;;;;11.82;10.13;;;410.10;1971.20;;;;;;4846470;29;20061;-81
2022/04/16 16:45:54;;;;;;;14.30;11.95;;;410.00;1971.20;;;;;;4845767;29;20378;-81
2022/04/16 16:48:19;;;;;;;16.63;13.02;;;410.00;1996.80;;;;;;4845409;29;20428;-84
2022/04/16 16:50:46;;;;;;;14.48;10.68;;;410.00;1996.80;;;;;;4845705;29;20055;-81
2022/04/16 16:53:12;;;;;;;12.80;11.02;;;410.00;2022.40;;;;;;4845688;29;20082;-82
2022/04/16 16:55:39;;;;;;;20.25;14.52;;;410.00;2022.40;;;;;;4845449;29;20475;-85
2022/04/16 16:58:05;;;;;;;16.02;12.18;;;410.00;2022.40;;;;;;4845207;29;20053;-84
2022/04/16 17:00:31;;;;;;;15.48;13.13;;;409.90;2022.40;;;;;;4862112;29;20038;-81
2022/04/16 17:19:06;;;;;;;27.95;16.98;;;409.80;2048.00;;;;;;4787001;30;20038;-85
2022/04/16 17:32:32;;;;;;;37.20;27.35;;;409.60;1996.80;;;;;;4701372;30;20202;-84
2022/04/16 18:12:37;;;;;;;32.33;19.77;;;384.60;2124.80;;;;;;4733012;30;20035;-84
2022/04/16 18:15:06;;;;;;;17.63;12.27;;;384.50;2150.40;;;;;;4741961;29;20028;-81
2022/04/16 18:17:38;;;;;;;17.10;11.95;;;384.40;2124.80;;;;;;4789945;29;20031;-82
2022/04/16 18:20:11;;;;;;;72.17;53.67;;;384.40;2124.80;;;;;;4822574;29;20023;-82
2022/04/16 18:22:38;;;;;;;42.28;31.27;;;384.40;2150.40;;;;;;4824477;29;20257;-81
2022/04/16 18:25:08;;;;;;;36.55;30.45;;;384.40;2150.40;;;;;;4823123;29;20027;-83
2022/04/16 18:27:34;;;;;;;27.50;21.98;;;384.40;2150.40;;;;;;4823130;29;20033;-82
2022/04/16 18:30:00;;;;;;;30.75;16.88;;;384.40;2150.40;;;;;;4822759;29;20018;-81
2022/04/16 18:32:28;;;;;;;22.63;17.77;;;384.30;2176.00;;;;;;4823614;29;20034;-84
2022/04/16 18:34:54;;;;;;;21.00;15.43;;;384.30;2176.00;;;;;;4822896;29;20049;-81
2022/04/16 18:37:20;;;;;;;18.98;11.68;;;384.20;2201.60;;;;;;4824387;29;20054;-81
2022/04/16 18:39:46;;;;;;;13.82;11.23;;;384.30;2201.60;;;;;;4826092;29;20027;-82
2022/04/16 18:42:14;;;;;;;13.85;10.32;;;384.10;2201.60;;;;;;4826333;29;20038;-81
2022/04/16 18:44:41;;;;;;;14.55;10.63;;;384.10;2201.60;;;;;;4826281;29;20065;-82
2022/04/16 18:47:07;;;;;;;14.05;9.75;;;384.10;2201.60;;;;;;4826047;29;20038;-82
2022/04/16 18:49:33;;;;;;;12.70;9.32;;;384.00;2227.20;;;;;;4826254;29;20026;-82
2022/04/16 18:51:59;;;;;;;24.13;20.25;;;384.00;2227.20;;;;;;4811579;29;20026;-80
2022/04/16 18:54:25;;;;;;;14.38;10.30;;;384.00;2252.80;;;;;;4827444;29;20026;-81
2022/04/16 18:56:51;;;;;;;40.20;30.52;;;359.30;2227.20;;;;;;4825969;29;20014;-82
2022/04/16 18:59:18;;;;;;;31.67;19.73;;;384.00;2227.20;;;;;;4830874;29;20045;-84
2022/04/16 19:07:20;;;;;;;29.15;19.05;;;384.00;2252.80;;;;;;4845897;29;20033;-82
2022/04/16 19:09:46;;;;;;;42.80;24.05;;;359.30;2252.80;;;;;;4845175;29;20025;-83
2022/04/16 19:12:16;;;;;;;24.90;14.38;;;359.30;2278.40;;;;;;4844803;29;20029;-82
2022/04/16 19:14:43;;;;;;;17.75;11.75;;;359.30;2278.40;;;;;;4844736;29;20033;-83
2022/04/16 19:17:12;;;;;;;22.52;15.00;;;359.30;2252.80;;;;;;4844753;29;20022;-84
2022/04/16 19:19:41;;;;;;;33.72;20.73;;;359.30;2278.40;;;;;;4845285;29;20386;-80
2022/04/16 19:22:14;;;;;;;31.73;18.67;;;359.30;2278.40;;;;;;4844818;29;20034;-83
2022/04/16 19:24:49;;;;;;;26.25;15.95;;;359.30;2278.40;;;;;;4845248;29;20033;-79
2022/04/16 19:27:15;;;;;;;34.95;20.38;;;359.30;2278.40;;;;;;4844738;29;20067;-83
2022/04/16 19:29:45;;;;;;;31.80;16.83;;;359.10;2304.00;;;;;;4843728;29;20029;-84
2022/04/16 19:32:14;;;;;;;23.55;14.73;;;359.30;2304.00;;;;;;4844173;29;20026;-84
2022/04/16 19:34:49;;;;;;;30.27;18.85;;;359.20;2304.00;;;;;;4844028;29;20046;-81
2022/04/16 19:37:19;;;;;;;28.45;18.85;;;359.10;2304.00;;;;;;4847692;29;20108;-82
2022/04/16 19:39:45;;;;;;;29.90;19.02;;;359.20;2329.60;;;;;;4846873;29;20059;-82
2022/04/16 19:42:12;;;;;;;41.17;23.42;;;359.20;2304.00;;;;;;4844947;29;20037;-82
2022/04/16 19:44:38;;;;;;;31.67;17.88;;;359.20;2304.00;;;;;;4849231;29;20087;-81
2022/04/16 19:47:04;;;;;;;21.25;14.15;;;359.10;2304.00;;;;;;4848629;29;20026;-81
2022/04/16 19:49:30;;;;;;;26.67;15.48;;;359.20;2329.60;;;;;;4845367;29;20085;-81
2022/04/16 19:51:56;;;;;;;22.85;13.27;;;359.10;2329.60;;;;;;4850974;29;20053;-82
2022/04/16 19:54:22;;;;;;;33.78;21.10;;;359.10;2329.60;;;;;;4853308;29;20026;-80
2022/04/16 19:56:50;;;;;;;33.88;20.42;;;359.10;2329.60;;;;;;4844669;29;20034;-83
2022/04/16 19:59:16;;;;;;;30.02;17.23;;;359.20;2329.60;;;;;;4844551;29;20408;-84
2022/04/16 20:01:42;;;;;;;15.50;8.32;;;359.20;2329.60;;;;;;4843586;29;20036;-81
2022/04/16 20:04:08;;;;;;;19.15;11.15;;;384.10;2278.40;;;;;;4843003;29;20117;-84
2022/04/16 20:06:34;;;;;;;23.88;15.63;;;359.30;2278.40;;;;;;4828297;29;20065;-84
2022/04/16 20:11:50;;;;;;;15.15;9.40;;;359.30;2278.40;;;;;;4844551;29;20470;-79
2022/04/16 20:14:16;;;;;;;13.40;8.80;;;359.30;2304.00;;;;;;4843335;29;20022;-83
2022/04/16 20:16:48;;;;;;;18.50;12.93;;;359.20;2304.00;;;;;;4843060;29;20037;-82
2022/04/16 20:19:32;;;;;;;12.50;8.32;;;359.20;2329.60;;;;;;4842000;29;20057;-81
2022/04/16 20:21:58;;;;;;;16.38;11.30;;;359.10;2329.60;;;;;;4843271;29;20053;-81
2022/04/16 20:24:28;;;;;;;40.47;19.85;;;359.10;2329.60;;;;;;4842767;29;20026;-82
2022/04/16 20:26:55;;;;;;;20.58;12.27;;;359.10;2329.60;;;;;;4842988;29;20022;-82
2022/04/16 20:29:21;;;;;;;11.90;7.97;;;359.00;2329.60;;;;;;4843077;29;20033;-81
2022/04/16 20:31:47;;;;;;;23.25;12.40;;;359.00;2329.60;;;;;;4843530;29;20044;-81
2022/04/16 20:34:13;;;;;;;32.65;17.42;;;359.00;2329.60;;;;;;4843193;29;20034;-83
2022/04/16 20:36:39;;;;;;;12.25;9.00;;;359.00;2329.60;;;;;;4842932;29;20459;-81
2022/04/16 20:39:05;;;;;;;15.20;10.50;;;359.00;2329.60;;;;;;4850338;29;20025;-82
2022/04/16 20:47:12;;;;;;;12.27;7.80;;;358.90;2329.60;;;;;;4843972;29;20029;-81
2022/04/16 20:50:27;;;;;;;11.07;7.82;;;359.00;2329.60;;;;;;4843876;29;20018;-82
2022/04/16 20:53:17;;;;;;;21.13;11.57;;;358.90;2329.60;;;;;;4842233;29;20026;-80
2022/04/16 20:55:43;;;;;;;25.48;14.45;;;358.90;2329.60;;;;;;4842718;29;20037;-81
2022/04/16 20:58:15;;;;;;;27.02;15.30;;;358.90;2329.60;;;;;;4842665;29;20033;-82
2022/04/16 21:00:47;;;;;;;18.95;12.80;;;358.90;2329.60;;;;;;4841570;29;20140;-81
2022/04/16 21:03:15;;;;;;;13.80;8.95;;;358.80;2329.60;;;;;;4842837;29;20038;-82
2022/04/16 21:05:41;;;;;;;17.50;10.27;;;358.80;2329.60;;;;;;4843417;29;20037;-81
2022/04/16 21:08:11;;;;;;;23.55;13.13;;;358.60;2329.60;;;;;;4827057;29;20030;-81
2022/04/16 21:10:37;;;;;;;19.13;12.20;;;358.60;2329.60;;;;;;4842535;29;20029;-82
2022/04/16 21:13:06;;;;;;;15.52;9.75;;;358.60;2329.60;;;;;;4841985;29;20021;-83
2022/04/16 21:15:48;;;;;;;17.23;11.80;;;358.60;2329.60;;;;;;4843414;29;20107;-83
2022/04/16 21:18:35;;;;;;;15.82;11.32;;;358.60;2329.60;;;;;;4842164;29;20030;-79
2022/04/16 21:21:04;;;;;;;14.30;10.95;;;358.70;2329.60;;;;;;4841852;29;20022;-83
2022/04/16 21:23:35;;;;;;;13.88;10.32;;;358.70;2329.60;;;;;;4841904;29;20026;-83
2022/04/16 21:26:02;;;;;;;11.93;8.18;;;358.60;2329.60;;;;;;4843370;29;20033;-80
2022/04/16 21:28:28;;;;;;;17.30;10.88;;;358.60;2329.60;;;;;;4841571;29;20042;-80
2022/04/16 21:30:53;;;;;;;18.17;10.82;;;358.60;2329.60;;;;;;4842082;29;20017;-87
2022/04/16 21:33:22;;;;;;;16.35;11.98;;;358.50;2329.60;;;;;;4843075;29;20091;-83